Time;durP1;ratioP1;P1;durP2;ratioP2;P2;SDS_P1;SDS_P2;PMS_P1;PMS_P2;Temp;Humidity;BMP_temperature;BMP_pressure;BME280_temperature;BME280_humidity;BME280_pressure;Samples;Min_cycle;Max_cycle;Signal;HPM_P1;HPM_P2
2021/04/24 00:00:30;;;;;;;37.27;22.93;;;;;;;3.99;76.37;99516.16;2257760;78;21144;-77
2021/04/24 00:03:33;;;;;;;44.07;25.17;;;;;;;3.96;76.14;99522.06;2257820;79;21120;-78
2021/04/24 00:06:34;;;;;;;51.53;25.80;;;;;;;3.93;76.12;99522.31;2257994;79;21402;-78
2021/04/24 00:09:35;;;;;;;41.73;23.77;;;;;;;3.92;76.12;99520.55;2257764;79;21115;-77
2021/04/24 00:12:36;;;;;;;38.73;23.17;;;;;;;3.93;76.23;99521.02;2257729;79;21132;-78
2021/04/24 00:15:37;;;;;;;41.93;18.67;;;;;;;3.95;76.13;99521.98;2257863;79;21152;-78
2021/04/24 00:18:38;;;;;;;35.77;21.10;;;;;;;3.90;76.10;99522.16;2258018;79;21098;-78
2021/04/24 00:21:39;;;;;;;42.17;24.27;;;;;;;3.84;76.10;99527.52;2257805;79;21254;-78
2021/04/24 00:24:40;;;;;;;48.87;26.53;;;;;;;3.81;76.36;99518.73;2257861;79;21100;-77
2021/04/24 00:27:41;;;;;;;48.57;26.73;;;;;;;3.78;76.36;99523.34;2257810;79;21402;-78
2021/04/24 00:30:43;;;;;;;43.70;23.67;;;;;;;3.79;76.41;99519.95;2259756;79;21100;-77
2021/04/24 00:33:44;;;;;;;36.23;20.63;;;;;;;3.82;76.33;99517.52;2258527;79;21104;-76
2021/04/24 00:36:45;;;;;;;33.83;20.57;;;;;;;3.82;76.34;99508.88;2257997;79;21077;-78
2021/04/24 00:39:46;;;;;;;32.47;18.90;;;;;;;3.79;76.17;99515.19;2257871;79;21132;-78
2021/04/24 00:42:47;;;;;;;38.57;22.40;;;;;;;3.77;76.25;99515.52;2257657;79;21430;-78
2021/04/24 00:45:49;;;;;;;35.13;21.03;;;;;;;3.75;76.44;99510.68;2257734;79;21057;-78
2021/04/24 00:48:50;;;;;;;48.43;26.80;;;;;;;3.76;76.52;99516.33;2257753;79;21105;-78
2021/04/24 00:51:51;;;;;;;59.77;29.83;;;;;;;3.76;76.48;99513.34;2257861;79;21128;-78
2021/04/24 00:54:52;;;;;;;60.50;31.43;;;;;;;3.79;76.57;99512.61;2257877;79;21116;-77
2021/04/24 00:57:53;;;;;;;56.57;29.30;;;;;;;3.83;76.60;99516.70;2258241;79;21108;-78
2021/04/24 01:00:54;;;;;;;52.23;26.47;;;;;;;3.86;76.54;99508.22;2257809;79;21141;-79
2021/04/24 01:03:56;;;;;;;49.70;27.93;;;;;;;3.90;76.37;99513.13;2257681;78;21121;-78
2021/04/24 01:06:57;;;;;;;43.87;25.67;;;;;;;3.92;76.33;99508.52;2257806;79;21101;-78
2021/04/24 01:09:58;;;;;;;41.30;23.17;;;;;;;3.98;76.24;99507.92;2258232;79;21128;-78
2021/04/24 01:12:59;;;;;;;42.20;24.40;;;;;;;3.97;76.01;99499.29;2257697;79;21121;-77
2021/04/24 01:16:00;;;;;;;46.97;24.07;;;;;;;3.97;76.05;99499.29;2257706;79;21141;-78
2021/04/24 01:19:02;;;;;;;38.50;24.10;;;;;;;3.99;76.04;99501.95;2257671;79;21093;-78
2021/04/24 01:22:03;;;;;;;38.17;21.80;;;;;;;3.97;76.11;99504.86;2257812;79;21109;-78
2021/04/24 01:25:04;;;;;;;41.27;21.67;;;;;;;3.98;76.01;99515.27;2257957;79;21123;-78
2021/04/24 01:28:05;;;;;;;37.70;21.57;;;;;;;4.01;75.82;99505.48;2257682;79;21067;-77
2021/04/24 01:31:06;;;;;;;44.13;24.83;;;;;;;4.04;75.75;99499.17;2257960;79;21124;-78
2021/04/24 01:34:07;;;;;;;38.37;23.33;;;;;;;4.04;75.91;99494.02;2257664;79;21398;-78
2021/04/24 01:37:08;;;;;;;41.30;25.83;;;;;;;4.05;76.03;99495.78;2257953;79;21402;-78
2021/04/24 01:40:12;;;;;;;39.80;22.10;;;;;;;4.07;76.05;99492.86;2258174;79;21215;-78
2021/04/24 01:43:13;;;;;;;62.13;39.83;;;;;;;4.05;75.58;99489.32;2257806;79;21121;-79
2021/04/24 01:46:14;;;;;;;33.13;20.67;;;;;;;3.97;75.55;99479.91;2258031;79;21406;-78
2021/04/24 01:49:15;;;;;;;36.33;21.00;;;;;;;3.91;75.35;99481.32;2257649;79;21096;-78
2021/04/24 01:52:16;;;;;;;33.30;19.10;;;;;;;3.79;75.44;99482.50;2257909;79;21125;-78
2021/04/24 01:55:17;;;;;;;41.63;21.23;;;;;;;3.72;75.65;99488.17;2257827;78;21108;-78
2021/04/24 01:58:18;;;;;;;31.57;19.30;;;;;;;3.70;75.86;99487.22;2257676;79;21363;-79
2021/04/24 02:01:19;;;;;;;31.57;19.40;;;;;;;3.69;75.61;99484.16;2257861;79;21139;-79
2021/04/24 02:04:20;;;;;;;33.07;18.47;;;;;;;3.63;75.27;99483.86;2257928;79;21104;-79
2021/04/24 02:07:22;;;;;;;35.17;18.23;;;;;;;3.50;75.22;99486.23;2257886;79;21093;-79
2021/04/24 02:10:23;;;;;;;30.17;18.13;;;;;;;3.43;75.60;99479.37;2257799;79;21109;-77
2021/04/24 02:13:24;;;;;;;34.73;18.97;;;;;;;3.36;75.53;99479.47;2257786;79;21411;-78
2021/04/24 02:16:25;;;;;;;30.37;18.30;;;;;;;3.28;75.74;99480.78;2258736;79;21140;-78
2021/04/24 02:19:26;;;;;;;28.73;16.97;;;;;;;3.26;75.98;99481.51;2258405;79;21089;-78
2021/04/24 02:22:27;;;;;;;33.37;18.17;;;;;;;3.25;75.96;99478.04;2257656;79;21133;-78
2021/04/24 02:25:28;;;;;;;32.60;19.67;;;;;;;3.24;76.04;99484.02;2257815;79;21378;-77
2021/04/24 02:28:29;;;;;;;33.63;19.17;;;;;;;3.27;76.18;99483.28;2257798;79;21109;-77
2021/04/24 02:31:30;;;;;;;37.50;19.53;;;;;;;3.32;76.15;99474.96;2257640;79;21398;-77
2021/04/24 02:34:32;;;;;;;35.10;20.67;;;;;;;3.36;76.03;99486.32;2257746;78;21386;-77
2021/04/24 02:37:33;;;;;;;39.53;19.23;;;;;;;3.38;76.14;99483.02;2257894;79;21101;-77
2021/04/24 02:40:34;;;;;;;41.53;20.47;;;;;;;3.42;76.23;99484.05;2257595;79;21276;-76
2021/04/24 02:43:35;;;;;;;36.30;21.10;;;;;;;3.44;76.40;99486.30;2257607;79;21120;-77
2021/04/24 02:46:36;;;;;;;46.33;22.93;;;;;;;3.49;76.40;99491.32;2257965;79;21223;-77
2021/04/24 02:49:37;;;;;;;41.77;20.23;;;;;;;3.51;76.42;99491.00;2257635;79;21115;-77
2021/04/24 02:52:38;;;;;;;40.97;21.50;;;;;;;3.53;76.37;99487.20;2257665;79;21100;-78
2021/04/24 02:55:39;;;;;;;41.13;21.83;;;;;;;3.47;76.56;99493.83;2257842;79;21093;-78
2021/04/24 02:58:40;;;;;;;48.60;20.53;;;;;;;3.39;76.42;99491.64;2257745;79;21230;-78
2021/04/24 03:01:41;;;;;;;43.20;21.03;;;;;;;3.34;76.51;99502.13;2257861;78;21259;-78
2021/04/24 03:04:42;;;;;;;41.33;20.10;;;;;;;3.31;76.68;99501.98;2257973;79;21116;-78
2021/04/24 03:07:43;;;;;;;39.40;20.13;;;;;;;3.29;76.51;99499.72;2257846;79;21371;-79
2021/04/24 03:10:44;;;;;;;51.17;24.73;;;;;;;3.26;76.60;99506.02;2258215;79;21132;-78
2021/04/24 03:13:46;;;;;;;50.67;24.13;;;;;;;3.24;76.62;99508.52;2258042;79;21137;-78
2021/04/24 03:16:47;;;;;;;53.10;24.00;;;;;;;3.23;76.53;99509.33;2257791;79;21375;-77
2021/04/24 03:19:48;;;;;;;43.80;21.63;;;;;;;3.19;76.43;99513.45;2258050;79;21089;-77
2021/04/24 03:22:49;;;;;;;39.50;20.77;;;;;;;3.15;76.27;99517.97;2257863;79;21139;-77
2021/04/24 03:25:50;;;;;;;43.10;21.00;;;;;;;3.09;76.28;99509.91;2258402;79;21096;-78
2021/04/24 03:28:51;;;;;;;34.73;19.20;;;;;;;3.03;76.16;99510.88;2257970;79;21065;-77
2021/04/24 03:31:52;;;;;;;41.07;20.83;;;;;;;2.98;75.96;99510.16;2257928;79;21100;-79
2021/04/24 03:34:53;;;;;;;38.30;19.70;;;;;;;2.87;75.87;99513.06;2258320;78;21489;-79
2021/04/24 03:37:54;;;;;;;31.23;18.67;;;;;;;2.77;75.90;99515.97;2257965;79;21354;-78
2021/04/24 03:40:55;;;;;;;55.10;25.33;;;;;;;2.76;75.90;99515.89;2257981;79;21140;-78
2021/04/24 03:43:56;;;;;;;37.47;18.40;;;;;;;2.67;75.77;99502.11;2257766;79;21140;-78
2021/04/24 03:46:57;;;;;;;37.87;18.67;;;;;;;2.60;75.81;99500.38;2257774;79;21112;-78
2021/04/24 03:49:58;;;;;;;37.10;19.97;;;;;;;2.56;76.10;99482.17;2258413;79;21088;-78
2021/04/24 03:52:59;;;;;;;50.03;26.17;;;;;;;2.59;76.12;99477.98;2257825;79;21221;-77
2021/04/24 03:56:00;;;;;;;52.90;26.27;;;;;;;2.55;76.11;99488.13;2258016;79;21097;-78
2021/04/24 03:59:02;;;;;;;46.43;24.60;;;;;;;2.54;75.95;99490.22;2259569;79;21385;-78
2021/04/24 04:02:03;;;;;;;44.50;23.37;;;;;;;2.56;75.93;99497.63;2257742;79;21136;-78
2021/04/24 04:05:04;;;;;;;44.10;25.23;;;;;;;2.61;75.83;99490.58;2258241;79;21077;-78
2021/04/24 04:08:05;;;;;;;36.33;20.60;;;;;;;2.73;75.74;99491.23;2258220;79;21073;-78
2021/04/24 04:11:07;;;;;;;35.00;18.13;;;;;;;2.84;75.37;99497.84;2258163;79;21117;-78
2021/04/24 04:14:08;;;;;;;36.50;20.10;;;;;;;2.98;75.25;99490.42;2257681;79;21125;-78
2021/04/24 04:17:09;;;;;;;39.43;22.43;;;;;;;3.10;75.34;99487.18;2257975;79;21109;-79
2021/04/24 04:20:10;;;;;;;39.80;23.87;;;;;;;3.24;75.09;99490.87;2257868;79;21203;-77
2021/04/24 04:23:11;;;;;;;32.37;21.13;;;;;;;3.36;75.13;99487.20;2257844;79;21418;-77
2021/04/24 04:26:12;;;;;;;31.53;16.43;;;;;;;3.53;74.69;99498.41;2258533;79;21191;-78
2021/04/24 04:29:15;;;;;;;27.47;15.00;;;;;;;3.65;74.24;99500.31;2257784;79;21120;-77
2021/04/24 04:32:16;;;;;;;27.23;15.27;;;;;;;3.72;73.89;99507.55;2258015;78;21238;-78
2021/04/24 04:35:17;;;;;;;31.27;16.63;;;;;;;3.83;73.80;99508.95;2258325;79;21108;-78
2021/04/24 04:38:18;;;;;;;36.33;17.40;;;;;;;3.98;73.53;99507.92;2257938;79;21125;-77
2021/04/24 04:41:19;;;;;;;32.30;17.43;;;;;;;4.14;72.83;99509.14;2257776;79;21125;-77
2021/04/24 04:44:20;;;;;;;33.20;17.20;;;;;;;4.29;72.36;99508.56;2257850;79;21510;-77
2021/04/24 04:47:23;;;;;;;32.93;18.70;;;;;;;4.43;72.04;99511.42;2257706;79;21097;-77
2021/04/24 04:50:24;;;;;;;43.20;20.83;;;;;;;4.47;70.95;99513.33;2258109;79;21116;-77
2021/04/24 04:53:26;;;;;;;45.77;22.13;;;;;;;4.60;71.16;99514.78;2257762;79;21104;-76
2021/04/24 04:56:27;;;;;;;33.70;17.97;;;;;;;4.61;69.77;99520.44;2258091;79;21065;-77
2021/04/24 04:59:28;;;;;;;30.63;15.90;;;;;;;4.60;69.67;99521.66;2258196;79;21223;-78
2021/04/24 05:02:29;;;;;;;27.80;15.63;;;;;;;4.60;68.98;99529.00;2258169;79;21140;-78
2021/04/24 05:05:31;;;;;;;30.40;15.80;;;;;;;4.60;69.20;99525.53;2258324;79;21112;-79
2021/04/24 05:08:35;;;;;;;30.77;15.23;;;;;;;4.72;69.15;99531.27;2258268;79;21097;-78
2021/04/24 05:11:35;;;;;;;24.77;13.20;;;;;;;4.83;68.91;99530.05;2258216;79;21120;-79
2021/04/24 05:14:36;;;;;;;27.53;14.30;;;;;;;4.93;68.18;99535.23;2257747;79;21073;-78
2021/04/24 05:17:37;;;;;;;27.13;15.00;;;;;;;5.02;68.39;99529.17;2257855;79;21136;-78
2021/04/24 05:20:38;;;;;;;31.03;14.80;;;;;;;5.20;68.07;99527.80;2257720;79;21418;-79
2021/04/24 05:23:41;;;;;;;21.27;14.03;;;;;;;5.39;67.37;99526.11;2257319;79;21137;-79
2021/04/24 05:26:42;;;;;;;18.37;12.13;;;;;;;5.50;66.80;99532.16;2257734;79;21100;-79
2021/04/24 05:29:43;;;;;;;25.57;12.50;;;;;;;5.42;65.17;99540.90;2257929;79;21109;-79
2021/04/24 05:32:44;;;;;;;24.97;12.53;;;;;;;5.31;66.26;99540.84;2258026;79;21136;-78
2021/04/24 05:35:45;;;;;;;26.63;13.33;;;;;;;5.44;65.98;99543.14;2258181;79;21189;-79
2021/04/24 05:38:46;;;;;;;17.63;11.57;;;;;;;5.50;64.32;99540.81;2257772;79;21383;-79
2021/04/24 05:41:48;;;;;;;20.60;10.90;;;;;;;5.54;65.25;99544.01;2258542;79;21410;-80
2021/04/24 05:44:49;;;;;;;18.57;9.27;;;;;;;5.72;64.47;99551.27;2258934;79;21077;-79
2021/04/24 05:47:50;;;;;;;26.87;10.80;;;;;;;5.81;61.37;99553.36;2257637;79;21227;-78
2021/04/24 05:50:51;;;;;;;19.33;10.00;;;;;;;5.83;62.45;99555.59;2257629;79;21136;-77
2021/04/24 05:53:52;;;;;;;18.97;11.00;;;;;;;5.90;61.63;99553.77;2257738;79;21112;-78
2021/04/24 05:56:53;;;;;;;20.53;11.00;;;;;;;5.92;61.89;99559.02;2258194;79;21104;-77
2021/04/24 05:59:54;;;;;;;25.20;11.70;;;;;;;6.05;63.11;99557.41;2258297;79;21117;-78
2021/04/24 06:02:55;;;;;;;18.93;9.90;;;;;;;6.27;62.08;99557.48;2257851;79;21155;-79
2021/04/24 06:05:57;;;;;;;18.60;10.17;;;;;;;6.31;60.72;99563.27;2257919;78;21065;-78
2021/04/24 06:08:58;;;;;;;16.63;9.57;;;;;;;6.26;61.00;99561.30;2257817;79;21104;-78
2021/04/24 06:11:59;;;;;;;19.93;10.70;;;;;;;6.33;61.68;99560.73;2258000;78;21085;-80
2021/04/24 06:15:00;;;;;;;19.07;11.60;;;;;;;6.36;60.52;99566.03;2258007;79;21219;-78
2021/04/24 06:18:01;;;;;;;22.20;11.33;;;;;;;6.34;61.07;99568.57;2257909;79;21407;-78
2021/04/24 06:21:02;;;;;;;20.33;11.10;;;;;;;6.49;61.22;99568.70;2257780;79;21291;-79
2021/04/24 06:24:03;;;;;;;14.00;9.97;;;;;;;6.56;60.27;99572.89;2257826;79;21073;-79
2021/04/24 06:27:04;;;;;;;20.43;10.20;;;;;;;6.57;59.43;99569.89;2258745;79;21370;-83
2021/04/24 06:30:06;;;;;;;21.23;10.63;;;;;;;7.70;68.18;99564.59;2259168;79;21113;-82
2021/04/24 06:33:07;;;;;;;18.07;10.30;;;;;;;9.52;58.24;99565.58;2258696;78;21221;-79
2021/04/24 06:36:08;;;;;;;16.70;10.27;;;;;;;9.17;55.04;99563.71;2258178;79;21378;-81
2021/04/24 06:39:09;;;;;;;31.00;17.10;;;;;;;9.13;55.02;99572.27;2258818;79;21097;-81
2021/04/24 06:42:10;;;;;;;18.73;10.63;;;;;;;8.91;52.83;99578.57;2258664;79;21152;-81
2021/04/24 06:45:13;;;;;;;12.30;8.40;;;;;;;8.73;53.09;99580.20;2258700;79;21112;-80
2021/04/24 06:48:14;;;;;;;13.23;7.07;;;;;;;8.43;52.94;99576.61;2258541;79;21096;-80
2021/04/24 06:51:15;;;;;;;12.63;7.47;;;;;;;8.14;52.46;99577.81;2258369;79;21109;-80
2021/04/24 06:54:16;;;;;;;15.87;6.63;;;;;;;7.97;53.55;99582.87;2258223;79;21112;-79
2021/04/24 06:57:17;;;;;;;12.37;6.40;;;;;;;7.97;51.56;99580.27;2258252;79;21085;-80
2021/04/24 07:00:18;;;;;;;18.07;8.80;;;;;;;7.97;52.25;99578.55;2258742;79;21445;-82
2021/04/24 07:03:19;;;;;;;16.13;6.77;;;;;;;7.97;53.83;99578.97;2258786;79;21485;-84
2021/04/24 07:06:20;;;;;;;8.67;6.00;;;;;;;7.93;49.83;99587.50;2258976;79;21100;-82
2021/04/24 07:09:22;;;;;;;14.60;7.60;;;;;;;7.89;50.56;99585.21;2258933;79;21092;-82
2021/04/24 07:12:23;;;;;;;10.40;6.07;;;;;;;8.26;51.15;99573.02;2258389;79;21132;-83
2021/04/24 07:15:27;;;;;;;10.63;6.15;;;;;;;8.40;50.68;99571.31;2258863;78;21244;-82
2021/04/24 07:18:28;;;;;;;8.17;5.53;;;;;;;8.44;51.45;99573.17;2239253;79;21423;-82
2021/04/24 07:21:29;;;;;;;11.30;6.23;;;;;;;8.58;50.57;99564.08;2226855;80;21110;-81
2021/04/24 07:24:30;;;;;;;8.23;5.30;;;;;;;8.50;49.97;99564.26;2227010;80;21145;-81
2021/04/24 07:27:31;;;;;;;11.50;6.07;;;;;;;8.51;50.42;99564.72;2226997;80;21078;-80
2021/04/24 07:30:32;;;;;;;10.53;5.70;;;;;;;9.04;50.63;99567.69;2226832;80;21125;-80
2021/04/24 07:33:33;;;;;;;13.00;6.53;;;;;;;9.64;49.67;99568.09;2227679;79;21356;-81
2021/04/24 07:36:34;;;;;;;11.10;5.93;;;;;;;9.97;48.26;99566.79;2227047;80;21089;-80
2021/04/24 07:39:35;;;;;;;8.87;5.10;;;;;;;10.10;46.55;99574.08;2226804;80;21094;-82
2021/04/24 07:42:36;;;;;;;9.13;4.80;;;;;;;9.94;46.05;99575.41;2226871;80;21122;-80
2021/04/24 07:45:37;;;;;;;8.77;5.07;;;;;;;9.56;46.05;99577.89;2226847;80;21110;-80
2021/04/24 07:48:38;;;;;;;9.30;5.47;;;;;;;9.36;46.83;99579.45;2226697;80;21117;-80
2021/04/24 07:51:39;;;;;;;11.00;5.73;;;;;;;9.22;49.09;99579.94;2226619;80;21102;-80
2021/04/24 07:54:42;;;;;;;9.03;5.73;;;;;;;9.06;48.38;99580.75;2226249;80;21129;-80
2021/04/24 07:57:43;;;;;;;7.73;4.83;;;;;;;8.92;47.51;99581.22;2226649;80;21101;-80
2021/04/24 08:00:45;;;;;;;9.27;5.70;;;;;;;8.90;49.14;99578.99;2226798;79;21165;-80
2021/04/24 08:03:46;;;;;;;8.83;4.80;;;;;;;8.97;49.35;99576.57;2226837;80;21078;-81
2021/04/24 08:06:47;;;;;;;7.30;4.47;;;;;;;9.04;48.68;99578.10;2226777;80;21114;-81
2021/04/24 08:09:48;;;;;;;8.13;4.40;;;;;;;9.00;48.24;99573.64;2227124;79;21225;-83
2021/04/24 08:12:50;;;;;;;9.80;4.30;;;;;;;8.99;47.28;99574.48;2227037;80;21133;-82
2021/04/24 08:15:51;;;;;;;6.77;3.60;;;;;;;9.01;48.42;99568.89;2226864;79;21101;-83
2021/04/24 08:18:52;;;;;;;7.63;4.60;;;;;;;9.11;47.20;99570.05;2227197;79;21384;-80
2021/04/24 08:21:53;;;;;;;7.63;3.77;;;;;;;9.28;47.33;99573.13;2226964;80;21133;-80
2021/04/24 08:24:54;;;;;;;7.47;4.60;;;;;;;9.47;47.50;99568.91;2226666;80;21074;-81
2021/04/24 08:27:55;;;;;;;7.97;3.77;;;;;;;9.94;46.48;99562.38;2226853;80;21395;-83
2021/04/24 08:30:56;;;;;;;6.63;3.70;;;;;;;10.11;44.86;99568.91;2226790;80;21117;-82
2021/04/24 08:33:57;;;;;;;6.33;3.77;;;;;;;10.38;45.31;99564.81;2226967;80;21097;-81
2021/04/24 08:36:58;;;;;;;4.30;3.70;;;;;;;10.85;43.47;99559.41;2227572;80;21114;-82
2021/04/24 08:40:00;;;;;;;6.85;3.50;;;;;;;11.53;43.51;99556.91;2227172;80;21094;-81
2021/04/24 08:43:01;;;;;;;4.85;3.72;;;;;;;11.82;42.32;99549.21;2227025;80;21133;-82
2021/04/24 08:46:02;;;;;;;7.83;4.45;;;;;;;11.66;41.91;99557.17;2226870;79;21110;-80
2021/04/24 08:49:03;;;;;;;8.65;4.75;;;;;;;11.58;41.38;99555.27;2227102;80;21244;-79
2021/04/24 08:52:04;;;;;;;6.37;3.70;;;;;;;11.64;40.93;99560.61;2226248;80;21098;-79
2021/04/24 08:55:05;;;;;;;7.67;4.33;;;;;;;11.59;39.16;99558.33;2226876;79;21122;-80
2021/04/24 08:58:07;;;;;;;9.45;4.12;;;;;;;11.61;39.92;99557.94;2226754;80;21126;-80
2021/04/24 09:01:09;;;;;;;5.28;3.40;;;;;;;11.72;39.77;99544.63;2226492;80;21133;-78
2021/04/24 09:04:10;;;;;;;7.90;4.30;;;;;;;11.58;41.38;99545.69;2226852;80;21106;-81
2021/04/24 09:07:11;;;;;;;5.60;3.65;;;;;;;11.37;41.34;99544.84;2227040;80;21117;-82
2021/04/24 09:10:15;;;;;;;6.45;3.35;;;;;;;11.11;39.87;99549.94;2227339;79;21117;-82
2021/04/24 09:13:17;;;;;;;4.65;3.55;;;;;;;10.97;41.43;99543.55;2227596;80;21153;-80
2021/04/24 09:16:18;;;;;;;9.55;3.60;;;;;;;11.06;39.79;99556.80;2227287;79;21100;-82
2021/04/24 09:19:19;;;;;;;4.67;3.45;;;;;;;10.93;40.20;99536.49;2249921;79;21105;-82
2021/04/24 09:22:20;;;;;;;6.62;3.02;;;;;;;11.11;41.17;99540.80;2258407;79;21140;-81
2021/04/24 09:25:21;;;;;;;7.30;3.75;;;;;;;11.11;39.78;99535.57;2258629;78;21100;-82
2021/04/24 09:28:22;;;;;;;5.12;3.22;;;;;;;11.30;39.51;99535.13;2258799;79;21382;-82
2021/04/24 09:31:23;;;;;;;6.47;3.58;;;;;;;11.27;40.15;99528.53;2258914;79;21128;-80
2021/04/24 09:34:24;;;;;;;5.70;2.80;;;;;;;11.40;39.22;99527.03;2258230;79;21104;-80
2021/04/24 09:37:25;;;;;;;5.65;3.25;;;;;;;11.79;39.36;99516.03;2258007;79;21112;-79
2021/04/24 09:40:26;;;;;;;5.85;3.45;;;;;;;12.03;39.41;99514.69;2258146;79;21097;-80
2021/04/24 09:43:27;;;;;;;5.20;3.75;;;;;;;12.16;38.25;99506.64;2258933;79;21140;-80
2021/04/24 09:46:28;;;;;;;7.55;3.95;;;;;;;12.19;38.41;99507.57;2258131;79;21088;-79
2021/04/24 09:49:29;;;;;;;5.42;3.12;;;;;;;12.17;38.42;99505.36;2258849;78;21132;-82
2021/04/24 09:52:31;;;;;;;6.78;3.75;;;;;;;12.20;38.89;99499.30;2258616;79;21120;-80
2021/04/24 09:55:32;;;;;;;8.05;3.80;;;;;;;12.68;37.92;99505.68;2258490;79;21096;-80
2021/04/24 09:58:33;;;;;;;4.28;3.08;;;;;;;12.77;37.07;99495.33;2258832;79;21112;-82
2021/04/24 10:01:34;;;;;;;8.78;3.77;;;;;;;12.29;37.39;99498.13;2259135;78;21152;-81
2021/04/24 10:04:35;;;;;;;7.08;3.95;;;;;;;12.06;38.17;99491.19;2258819;79;21076;-82
2021/04/24 10:07:36;;;;;;;7.50;3.45;;;;;;;12.39;38.39;99487.81;2258643;79;21124;-81
2021/04/24 10:10:38;;;;;;;5.10;3.05;;;;;;;12.92;37.18;99476.30;2258263;79;21415;-81
2021/04/24 10:13:39;;;;;;;9.70;4.00;;;;;;;13.51;37.07;99470.92;2258382;79;21148;-81
2021/04/24 10:16:43;;;;;;;8.10;3.65;;;;;;;13.50;36.21;99467.84;2258646;78;21525;-82
2021/04/24 10:19:44;;;;;;;8.03;5.42;;;;;;;13.47;36.84;99465.19;2234004;79;21121;-81
2021/04/24 10:22:45;;;;;;;9.03;4.60;;;;;;;13.13;36.55;99463.48;2227012;80;21150;-81
2021/04/24 10:25:46;;;;;;;8.43;4.60;;;;;;;12.54;35.94;99463.59;2227489;80;21109;-81
2021/04/24 10:28:47;;;;;;;9.60;5.05;;;;;;;11.96;37.57;99473.58;2226913;80;21102;-82
2021/04/24 10:31:48;;;;;;;7.83;4.22;;;;;;;11.79;39.05;99468.08;2226901;79;21125;-80
2021/04/24 10:34:49;;;;;;;8.70;5.12;;;;;;;11.71;38.08;99463.11;2227070;79;21109;-82
2021/04/24 10:37:51;;;;;;;6.87;4.42;;;;;;;11.52;37.12;99471.06;2227070;80;21114;-82
2021/04/24 10:40:52;;;;;;;8.10;4.12;;;;;;;11.46;38.58;99465.30;2227016;79;21165;-82
2021/04/24 10:43:53;;;;;;;8.75;4.28;;;;;;;11.58;38.75;99468.98;2226959;79;21537;-82
2021/04/24 10:46:54;;;;;;;10.90;5.62;;;;;;;11.86;37.72;99464.70;2226901;80;21105;-81
2021/04/24 10:49:55;;;;;;;9.63;5.30;;;;;;;12.06;36.27;99462.41;2226877;79;21074;-81
2021/04/24 10:52:56;;;;;;;8.45;4.50;;;;;;;12.15;37.48;99459.09;2227061;80;21100;-81
2021/04/24 10:55:57;;;;;;;8.28;4.20;;;;;;;12.14;37.33;99463.44;2227139;80;21097;-83
2021/04/24 10:58:59;;;;;;;6.15;3.62;;;;;;;12.10;37.85;99459.86;2227233;79;21101;-82
2021/04/24 11:02:00;;;;;;;5.30;3.42;;;;;;;11.84;37.17;99457.69;2227222;80;21415;-81
2021/04/24 11:05:01;;;;;;;8.90;4.05;;;;;;;11.56;38.08;99448.46;2227760;80;21413;-82
2021/04/24 11:08:02;;;;;;;9.83;3.80;;;;;;;11.56;37.96;99453.69;2226932;80;21134;-80
2021/04/24 11:11:03;;;;;;;8.20;4.83;;;;;;;11.39;37.43;99455.58;2227177;80;21097;-82
2021/04/24 11:14:04;;;;;;;9.55;5.22;;;;;;;11.14;38.95;99450.72;2227201;80;21431;-80
2021/04/24 11:17:05;;;;;;;9.05;5.28;;;;;;;10.92;38.78;99472.05;2227393;80;21066;-82
2021/04/24 11:20:06;;;;;;;12.47;5.83;;;;;;;10.51;39.63;99463.80;2252426;79;21089;-79
2021/04/24 11:23:07;;;;;;;12.30;5.30;;;;;;;10.21;41.23;99480.03;2258260;79;21415;-78
2021/04/24 11:26:08;;;;;;;13.47;6.13;;;;;;;10.04;43.70;99483.94;2258930;79;21124;-80
2021/04/24 11:29:10;;;;;;;9.43;5.00;;;;;;;10.13;42.77;99473.30;2258583;78;21509;-81
2021/04/24 11:32:11;;;;;;;8.60;4.73;;;;;;;10.48;43.09;99465.03;2258967;79;21069;-80
2021/04/24 11:35:12;;;;;;;8.53;4.35;;;;;;;10.77;43.26;99472.19;2258491;78;21402;-79
2021/04/24 11:38:13;;;;;;;10.82;4.72;;;;;;;11.19;43.21;99450.38;2258543;78;21105;-80
2021/04/24 11:41:14;;;;;;;11.22;4.75;;;;;;;11.82;42.17;99458.09;2258457;79;21153;-80
2021/04/24 11:44:16;;;;;;;10.15;4.90;;;;;;;12.09;40.06;99460.72;2258385;78;21116;-79
2021/04/24 11:47:17;;;;;;;6.42;4.53;;;;;;;11.98;40.83;99450.94;2258496;79;21084;-80
2021/04/24 11:50:18;;;;;;;7.97;4.95;;;;;;;11.98;39.97;99454.44;2258634;79;21073;-79
2021/04/24 11:53:19;;;;;;;9.68;5.70;;;;;;;11.98;40.27;99450.52;2258383;79;21124;-80
2021/04/24 11:56:21;;;;;;;8.58;4.90;;;;;;;12.29;40.07;99447.08;2258295;79;21381;-79
2021/04/24 11:59:23;;;;;;;12.15;5.40;;;;;;;12.36;38.42;99448.50;2258474;79;21398;-81
2021/04/24 12:02:24;;;;;;;10.88;5.97;;;;;;;12.33;38.48;99445.84;2258396;78;21129;-79
2021/04/24 12:05:25;;;;;;;10.00;4.58;;;;;;;12.06;39.08;99459.36;2258438;78;21217;-79
2021/04/24 12:08:26;;;;;;;8.83;4.30;;;;;;;11.76;37.80;99452.30;2258313;79;21101;-79
2021/04/24 12:11:27;;;;;;;7.22;4.35;;;;;;;11.60;36.57;99458.13;2258707;79;21343;-79
2021/04/24 12:14:30;;;;;;;8.15;4.58;;;;;;;11.38;39.25;99456.86;2258531;79;21148;-79
2021/04/24 12:17:33;;;;;;;9.33;5.00;;;;;;;11.21;39.13;99460.86;2257882;79;21705;-79
2021/04/24 12:20:34;;;;;;;12.78;5.55;;;;;;;11.16;39.86;99445.09;2230300;79;21091;-79
2021/04/24 12:23:36;;;;;;;11.15;5.20;;;;;;;11.29;40.25;99456.69;2226866;79;21125;-80
2021/04/24 12:26:37;;;;;;;7.58;5.42;;;;;;;11.43;40.91;99443.45;2226846;80;21204;-79
2021/04/24 12:29:38;;;;;;;12.88;7.30;;;;;;;11.52;40.59;99438.80;2226645;80;21109;-78
2021/04/24 12:32:41;;;;;;;14.40;5.62;;;;;;;11.64;40.46;99440.32;2226680;80;21102;-78
2021/04/24 12:35:42;;;;;;;14.53;6.40;;;;;;;12.05;40.94;99431.86;2226698;80;21126;-79
2021/04/24 12:38:43;;;;;;;9.93;5.92;;;;;;;12.77;38.40;99427.22;2226775;79;21415;-80
2021/04/24 12:41:44;;;;;;;11.50;6.28;;;;;;;13.06;36.49;99424.54;2226644;80;21141;-79
2021/04/24 12:44:45;;;;;;;10.85;7.90;;;;;;;12.76;36.51;99419.79;2227043;80;21148;-80
2021/04/24 12:47:47;;;;;;;8.70;5.55;;;;;;;12.55;37.89;99415.59;2227135;80;21113;-78
2021/04/24 12:50:48;;;;;;;11.35;7.42;;;;;;;12.46;36.40;99425.06;2226810;79;21122;-78
2021/04/24 12:53:52;;;;;;;11.38;6.37;;;;;;;12.32;36.00;99415.28;2226793;80;21498;-80
2021/04/24 12:56:54;;;;;;;11.43;6.00;;;;;;;12.25;36.64;99415.17;2226994;80;21120;-80
2021/04/24 12:59:55;;;;;;;7.60;4.55;;;;;;;12.29;37.14;99416.55;2226592;80;21097;-79
2021/04/24 13:02:56;;;;;;;12.30;5.08;;;;;;;12.32;37.40;99410.48;2226473;79;21142;-79
2021/04/24 13:05:58;;;;;;;8.18;4.97;;;;;;;12.42;36.11;99412.36;2226589;80;21431;-80
2021/04/24 13:08:59;;;;;;;10.72;4.70;;;;;;;12.46;36.54;99403.69;2226928;80;21109;-80
2021/04/24 13:12:00;;;;;;;7.35;4.12;;;;;;;12.66;36.57;99399.58;2226763;80;21136;-79
2021/04/24 13:15:01;;;;;;;9.38;5.08;;;;;;;12.79;36.89;99397.11;2226393;80;21157;-79
2021/04/24 13:18:03;;;;;;;6.10;3.90;;;;;;;12.90;35.56;99394.18;2226484;80;21376;-78
2021/04/24 13:21:05;;;;;;;9.75;5.65;;;;;;;13.26;36.58;99387.20;2226444;79;21553;-79
2021/04/24 13:24:06;;;;;;;7.12;4.40;;;;;;;13.58;34.97;99390.11;2226472;80;21070;-79
2021/04/24 13:27:07;;;;;;;7.00;4.17;;;;;;;13.39;33.40;99386.02;2226512;80;21216;-79
2021/04/24 13:30:09;;;;;;;5.10;3.90;;;;;;;13.50;33.35;99379.98;2226437;80;21099;-79
2021/04/24 13:33:12;;;;;;;10.60;4.60;;;;;;;13.58;33.83;99373.94;2226791;80;21141;-79
2021/04/24 13:36:13;;;;;;;7.37;4.20;;;;;;;13.44;34.68;99372.06;2226348;80;21379;-78
2021/04/24 13:39:14;;;;;;;6.15;4.55;;;;;;;13.36;34.64;99374.63;2226411;79;21538;-79
2021/04/24 13:42:16;;;;;;;8.88;4.30;;;;;;;13.49;35.01;99379.11;2226557;80;21161;-78
2021/04/24 13:45:17;;;;;;;6.92;3.90;;;;;;;13.67;35.59;99366.58;2226593;79;21128;-78
2021/04/24 13:48:18;;;;;;;6.22;4.28;;;;;;;13.59;33.39;99369.57;2226606;80;21363;-79
2021/04/24 13:51:19;;;;;;;8.25;4.70;;;;;;;13.32;34.53;99367.59;2226743;80;21129;-79
2021/04/24 13:54:20;;;;;;;5.08;3.83;;;;;;;12.99;35.56;99368.08;2226731;79;21078;-80
2021/04/24 13:57:21;;;;;;;9.43;4.55;;;;;;;12.79;35.85;99363.05;2227040;80;21212;-79
2021/04/24 14:00:22;;;;;;;12.90;8.15;;;;;;;12.66;36.08;99361.61;2226385;80;21118;-78
2021/04/24 14:03:23;;;;;;;8.95;5.10;;;;;;;12.79;35.69;99370.48;2226330;80;21138;-78
2021/04/24 14:06:24;;;;;;;8.70;5.75;;;;;;;13.14;35.40;99372.20;2226648;80;21105;-78